»·PEaware :: PRD69 KSAN-KIFP

PRD69 :: KSAN-KIFP

FLIGHT INFORMATION

Flight Status: Arrived
Operator: Unknown
More flights by this operator :: More flights under this callsign
Pilot: Ryan B. (8502)
Aircraft: BOEING 737-200
(B732)
More flights by this aircraft type
Origin: KSAN San Diego Intl-Lindbergh
United States
Destination: KIFP Laughlin/Bullhead Intl
United States
More flights between these airports :: More routes between these airports
Route: +ZZOOO2 MTBAL AVRRY EED
File this flight plan on PilotEdge
Remarks:
Altitude:
(Current/Filed)
29,000ft
Speed:
(Current/Filed)
445kts
Departed: 06-Jun-18 08:45 PM
Arrived: 06-Jun-18 09:26 PM
Distance/Time
Traveled:
196nm/0:41
Distance/Time
To Go:
Arrived

Flight Plot

Page will automatically refresh every two minutes.

Flight plan parsing failed; only flown route is shown


Map Options




Map Legend


Flown Route
Filed Route
Departure Airport
Arrival Airport
Navaid (VOR, NDB)
Fix

Horizontal Profiles

Position Reports

Time Latitude Longitude Heading Altitude Ground
Speed
06-Jun-18 20:33 32.732458 -117.177867 193 25ft 0kts
06-Jun-18 20:34 32.732458 -117.177867 193 25ft 0kts
06-Jun-18 20:35 32.732458 -117.177867 193 25ft 0kts
06-Jun-18 20:36 32.732458 -117.177867 193 25ft 0kts
06-Jun-18 20:37 32.732458 -117.177867 193 25ft 0kts
06-Jun-18 20:38 32.732458 -117.177867 193 25ft 0kts
06-Jun-18 20:39 32.732458 -117.177867 194 25ft 0kts
06-Jun-18 20:40 32.732458 -117.177867 193 25ft 0kts
06-Jun-18 20:41 32.732458 -117.177867 193 25ft 0kts
06-Jun-18 20:42 32.732263 -117.177923 192 25ft 4kts
06-Jun-18 20:43 32.731362 -117.176417 114 25ft 0kts
06-Jun-18 20:44 32.730240 -117.175976 286 25ft 6kts
06-Jun-18 20:45 32.739071 -117.212033 288 867ft 183kts
06-Jun-18 20:46 32.732811 -117.265570 197 3754ft 204kts
06-Jun-18 20:47 32.674920 -117.255941 167 6216ft 233kts
06-Jun-18 20:48 32.629795 -117.204977 97 8865ft 259kts
06-Jun-18 20:49 32.620682 -117.118824 95 11569ft 282kts
06-Jun-18 20:50 32.611044 -117.015351 94 13828ft 326kts
06-Jun-18 20:51 32.604756 -116.906438 75 16563ft 343kts
06-Jun-18 20:52 32.628869 -116.796323 57 19520ft 355kts
06-Jun-18 20:53 32.712036 -116.735233 23 22160ft 368kts
06-Jun-18 20:54 32.807190 -116.687061 22 24655ft 380kts
06-Jun-18 20:55 32.906440 -116.638174 22 26811ft 395kts
06-Jun-18 20:56 33.009436 -116.587524 22 28847ft 408kts
06-Jun-18 20:57 33.105284 -116.537445 23 30725ft 416kts
06-Jun-18 20:58 33.214431 -116.480326 23 31015ft 445kts
06-Jun-18 20:59 33.328792 -116.420296 23 31004ft 453kts
06-Jun-18 21:00 33.428120 -116.332587 51 31070ft 457kts
06-Jun-18 21:01 33.503877 -116.208712 53 31002ft 464kts
06-Jun-18 21:02 33.579201 -116.083042 53 31002ft 467kts
06-Jun-18 21:03 33.634919 -115.942407 68 30976ft 471kts
06-Jun-18 21:04 33.681388 -115.795953 68 30999ft 472kts
06-Jun-18 21:05 33.727842 -115.648634 68 30994ft 473kts
06-Jun-18 21:06 33.800053 -115.521436 41 31020ft 464kts
06-Jun-18 21:07 33.895140 -115.418376 40 30996ft 458kts
06-Jun-18 21:08 33.989604 -115.317250 41 30995ft 454kts
06-Jun-18 21:09 34.082049 -115.218087 41 30978ft 433kts
06-Jun-18 21:10 34.170947 -115.122483 41 29993ft 429kts
06-Jun-18 21:11 34.259022 -115.027472 41 29073ft 420kts
06-Jun-18 21:12 34.345038 -114.934399 41 27678ft 413kts
06-Jun-18 21:13 34.428995 -114.843394 41 25844ft 399kts
06-Jun-18 21:14 34.509938 -114.755282 41 23264ft 384kts
06-Jun-18 21:15 34.588780 -114.669307 41 18753ft 389kts
06-Jun-18 21:16 34.665545 -114.585358 41 15047ft 362kts
06-Jun-18 21:17 34.737897 -114.506185 39 11275ft 342kts
06-Jun-18 21:18 34.818106 -114.500588 348 9761ft 284kts
06-Jun-18 21:19 34.893066 -114.524301 345 7591ft 261kts
06-Jun-18 21:20 34.943570 -114.542677 344 7133ft 206kts
06-Jun-18 21:21 34.994229 -114.552377 3 5776ft 163kts
06-Jun-18 21:22 35.035524 -114.552723 357 4427ft 137kts
06-Jun-18 21:23 35.071617 -114.554478 359 3239ft 129kts
06-Jun-18 21:24 35.107347 -114.556207 0 2018ft 127kts
06-Jun-18 21:25 35.142408 -114.558544 358 818ft 125kts
06-Jun-18 21:26 35.165432 -114.560190 358 633ft 24kts
06-Jun-18 21:27 35.166019 -114.558896 144 644ft 7kts

Navigation Log

Ident Type
Flight plan parsing failed, navigation log unavailable